Vremea acum in Cluj Napoca - Romania

Vrei sa afli care e starea vremii acum in Cluj - Romania? Dorim sa iti furnizam starea vremii pentru Cluj - Romania. Starea vremii Cluj - Romania pentru astazi.

Vremea acum in Cluj Napoca

Temperatura: 24 °C

Se simte ca: 24.4 °C
Innorat: 25 %
Precipitatii: 79 %
Presiune atmosferica: 1019 hPa
Umiditate: 34%
Vizibilitate: 10 km
Vantul bate din SE cu 11.2 km/h

Evolutia vremii in Cluj Napoca pe ore

Ora: 16:00
Ploi uşoare şi de scurtă durată
Temperatura: 20.3°C
Sansa de precipitatii: 79%
Ora Descriere Temp Se simte Precipitatii Umiditate Vant
00:00Parțial noros12.4°11.9°0%83%SSE 10.4 KM/H
01:00Parțial noros10.6°9.6°0%83%SSE 10.1 KM/H
02:00Parțial noros8.9°7.4°0%83%SSE 9.7 KM/H
03:00Parțial noros8.8°7.5°0%82%SSE 9 KM/H
04:00Parțial noros8.8°7.5°0%82%SSE 8.3 KM/H
05:00Parțial noros8.7°7.6°0%82%SE 7.6 KM/H
06:00Tunete în apropiere10°9.1°0%79%SE 7.9 KM/H
07:00Parțial noros11.4°10.6°0%75%SE 8.3 KM/H
08:00Tunete în apropiere12.7°12.1°0%72%ESE 8.6 KM/H
09:00Ploi uşoare şi de scurtă durată14.6°14.2°33%69%SE 9.7 KM/H
10:00Tunete în apropiere16.4°16.2°66%65%SE 10.8 KM/H
11:00Ploi uşoare şi de scurtă durată18.3°18.3°99%61%SE 11.9 KM/H
12:00Ploi uşoare şi de scurtă durată19.4°19.4°87%58%SE 11.2 KM/H
13:00Ploi uşoare şi de scurtă durată20.4°20.4°76%54%SSE 10.1 KM/H
14:00Ploi uşoare şi de scurtă durată21.5°21.5°64%51%SSE 9.4 KM/H
15:00Tunete în apropiere20.9°20.9°71%54%SSW 8.6 KM/H
16:00Ploi uşoare şi de scurtă durată20.3°20.3°79%58%SW 7.6 KM/H
17:00Tunete în apropiere19.7°19.7°86%61%W 6.8 KM/H
18:00Ploi pe porţiuni în apropiere18.7°18.7°86%65%W 5.8 KM/H
19:00Tunete în apropiere17.7°17.7°86%69%W 5 KM/H
20:00Ploi pe porţiuni în apropiere16.7°16.7°86%73%W 4 KM/H
21:00Parțial noros15.4°15.5°57%75%WSW 4 KM/H
22:00Ploi pe porţiuni în apropiere14°14.4°29%77%SW 3.6 KM/H
23:00Parțial noros12.7°13.2°0%79%SSW 3.6 KM/H